Union, Utah
Current Conditions -  °F | °C
As of 9:53 AM on Thursday 30 Oct 2014 (Local Time) from KSLC Reporting Station
Few Clouds Few Clouds  
Wind Chill: 50°   Ceiling: Unl
Heat Index: 50°   Visibility: 10mi
Dew Point: 29°   Wind: 7mph
Humidity: 44%   Direction: 130°SE
Pressure: 30.26"   Gusts: NA
Location:  40.615°N, 111.891°W
Report Text: KSLC 301553Z 13006KT 10SM FEW150 10/M02 A3026 RMK AO2 SLP231 T01001017
Loading
Personal Weather Stations






























Interactive Weather Map
Tropical Storm Tracking
New forecast layout! Learn more

10-Day Weather Forecast

Advertisements
Track Severe Weather on mobile